Time;durP1;ratioP1;P1;durP2;ratioP2;P2;SDS_P1;SDS_P2;PMS_P1;PMS_P2;Temp;Humidity;BMP_temperature;BMP_pressure;BME280_temperature;BME280_humidity;BME280_pressure;Samples;Min_cycle;Max_cycle;Signal;HPM_P1;HPM_P2
2023/11/29 00:04:20;;;;;;;;;;;;;;;18.44;34.98;94676.53;10509536;28;2886;-48
2023/11/29 00:09:20;;;;;;;;;;;;;;;18.41;34.99;94672.59;10505350;28;2904;-53
2023/11/29 00:14:21;;;;;;;;;;;;;;;18.37;35.09;94674.22;10500370;28;3134;-50
2023/11/29 00:19:21;;;;;;;;;;;;;;;18.33;35.18;94668.00;10508162;28;2933;-52
2023/11/29 00:24:21;;;;;;;;;;;;;;;18.31;35.10;94670.13;10504063;28;2874;-52
2023/11/29 00:29:24;;;;;;;;;;;;;;;18.29;35.06;94664.38;10507591;28;2766;-52
2023/11/29 00:34:24;;;;;;;;;;;;;;;18.27;35.01;94655.22;10504115;28;2881;-48
2023/11/29 00:39:25;;;;;;;;;;;;;;;18.22;35.17;94671.03;10495901;28;2834;-52
2023/11/29 00:44:25;;;;;;;;;;;;;;;18.20;35.17;94660.84;10495870;28;4613;-51
2023/11/29 00:49:25;;;;;;;;;;;;;;;18.17;35.10;94666.66;10495902;28;2888;-49
2023/11/29 00:54:26;;;;;;;;;;;;;;;18.16;35.07;94669.53;10497619;28;2837;-50
2023/11/29 00:59:26;;;;;;;;;;;;;;;18.13;35.08;94668.28;10491293;28;2865;-53
2023/11/29 01:04:27;;;;;;;;;;;;;;;18.11;35.08;94677.50;10500646;28;2855;-52
2023/11/29 01:09:27;;;;;;;;;;;;;;;18.09;34.89;94675.16;10497165;28;2911;-54
2023/11/29 01:14:27;;;;;;;;;;;;;;;18.07;35.03;94679.13;10502877;28;2924;-53
2023/11/29 01:19:28;;;;;;;;;;;;;;;18.05;34.91;94681.25;10501774;28;3017;-52
2023/11/29 01:24:28;;;;;;;;;;;;;;;18.03;35.02;94681.53;10495234;28;2818;-51
2023/11/29 01:29:28;;;;;;;;;;;;;;;18.00;34.98;94692.59;10504634;28;2853;-51
2023/11/29 01:34:29;;;;;;;;;;;;;;;17.99;35.00;94690.25;10507468;28;2896;-50
2023/11/29 01:39:29;;;;;;;;;;;;;;;17.98;35.02;94691.31;10493749;28;2805;-49
2023/11/29 01:44:29;;;;;;;;;;;;;;;17.93;35.10;94668.53;10501839;28;4704;-52
2023/11/29 01:49:29;;;;;;;;;;;;;;;17.93;35.18;94654.69;10493876;28;2844;-48
2023/11/29 01:54:30;;;;;;;;;;;;;;;17.91;34.98;94656.81;10498728;28;2847;-47
2023/11/29 01:59:30;;;;;;;;;;;;;;;17.88;35.05;94647.66;10498303;28;2817;-51
2023/11/29 02:04:30;;;;;;;;;;;;;;;17.87;34.97;94646.09;10500297;28;2776;-53
2023/11/29 02:09:31;;;;;;;;;;;;;;;17.84;35.01;94642.22;10492902;28;2863;-52
2023/11/29 02:14:31;;;;;;;;;;;;;;;17.82;35.06;94644.34;10495096;28;2977;-50
2023/11/29 02:19:31;;;;;;;;;;;;;;;17.81;35.03;94645.38;10490082;28;3102;-53
2023/11/29 02:24:41;;;;;;;;;;;;;;;17.80;35.32;94646.41;10496372;28;2844;-53
2023/11/29 02:29:41;;;;;;;;;;;;;;;17.81;35.14;94640.13;10498720;28;2861;-51
2023/11/29 02:34:41;;;;;;;;;;;;;;;17.83;35.01;94650.31;10499202;28;2878;-51
2023/11/29 02:39:42;;;;;;;;;;;;;;;17.83;35.05;94645.09;10491180;28;2951;-50
2023/11/29 02:44:42;;;;;;;;;;;;;;;17.83;34.99;94640.63;10498332;28;4772;-52
2023/11/29 02:49:42;;;;;;;;;;;;;;;17.83;35.07;94626.72;10495290;28;2864;-49
2023/11/29 02:54:43;;;;;;;;;;;;;;;17.84;35.05;94631.72;10494281;28;2826;-52
2023/11/29 02:59:45;;;;;;;;;;;;;;;17.85;35.06;94635.88;10494348;28;2821;-51
2023/11/29 03:04:45;;;;;;;;;;;;;;;17.85;35.04;94641.13;10496921;28;2785;-51
2023/11/29 03:09:46;;;;;;;;;;;;;;;17.87;35.16;94644.25;10492451;28;2919;-50
2023/11/29 03:14:46;;;;;;;;;;;;;;;17.89;34.83;94644.75;10498228;28;2762;-50
2023/11/29 03:19:47;;;;;;;;;;;;;;;17.91;35.03;94648.94;10491544;28;2818;-51
2023/11/29 03:24:47;;;;;;;;;;;;;;;17.89;34.83;94641.34;10492597;28;2922;-51
2023/11/29 03:29:47;;;;;;;;;;;;;;;17.93;34.78;94638.94;10504490;28;2835;-49
2023/11/29 03:34:48;;;;;;;;;;;;;;;17.90;34.71;94640.28;10503270;28;2845;-50
2023/11/29 03:39:48;;;;;;;;;;;;;;;17.92;34.65;94640.00;10507212;28;2835;-50
2023/11/29 03:44:48;;;;;;;;;;;;;;;17.91;34.70;94641.84;10511319;28;2921;-51
2023/11/29 03:49:48;;;;;;;;;;;;;;;17.92;34.57;94647.88;10508622;28;2793;-51
2023/11/29 03:54:49;;;;;;;;;;;;;;;17.89;34.61;94639.50;10515570;28;2939;-49
2023/11/29 03:59:49;;;;;;;;;;;;;;;17.92;34.43;94643.41;10497578;28;2830;-51
2023/11/29 04:04:50;;;;;;;;;;;;;;;17.89;34.64;94636.09;10502529;28;2830;-48
2023/11/29 04:09:50;;;;;;;;;;;;;;;17.94;34.44;94635.25;10504246;28;2900;-50
2023/11/29 04:14:50;;;;;;;;;;;;;;;17.93;34.50;94637.09;10507862;28;2901;-51
2023/11/29 04:19:50;;;;;;;;;;;;;;;17.89;34.56;94626.38;10494070;28;2858;-51
2023/11/29 04:24:51;;;;;;;;;;;;;;;17.92;34.43;94626.88;10502887;28;3275;-52
2023/11/29 04:29:51;;;;;;;;;;;;;;;17.90;34.36;94624.56;10510860;28;2804;-52
2023/11/29 04:34:51;;;;;;;;;;;;;;;17.88;34.33;94622.22;10493234;28;2817;-53
2023/11/29 04:39:51;;;;;;;;;;;;;;;17.91;34.28;94612.22;10499264;28;2843;-50
2023/11/29 04:44:52;;;;;;;;;;;;;;;17.91;34.30;94607.75;10500114;28;2845;-49
2023/11/29 04:49:52;;;;;;;;;;;;;;;17.89;34.24;94613.28;10502607;28;2845;-53
2023/11/29 04:54:52;;;;;;;;;;;;;;;17.88;34.43;94614.38;10508888;28;2808;-52
2023/11/29 04:59:53;;;;;;;;;;;;;;;17.92;34.28;94613.78;10496525;28;2874;-52
2023/11/29 05:04:53;;;;;;;;;;;;;;;17.89;34.31;94615.91;10501947;28;2848;-54
2023/11/29 05:09:53;;;;;;;;;;;;;;;17.92;34.41;94622.44;10503115;28;3147;-48
2023/11/29 05:14:53;;;;;;;;;;;;;;;17.96;34.39;94625.25;10507444;28;2797;-49
2023/11/29 05:19:54;;;;;;;;;;;;;;;18.00;34.81;94631.50;10492018;28;2829;-50
2023/11/29 05:24:54;;;;;;;;;;;;;;;18.07;34.71;94629.31;10499928;28;3018;-52
2023/11/29 05:29:54;;;;;;;;;;;;;;;18.11;34.47;94625.06;10504738;28;3025;-54
2023/11/29 05:34:56;;;;;;;;;;;;;;;18.16;34.81;94632.81;10506355;28;3206;-54
2023/11/29 05:39:56;;;;;;;;;;;;;;;18.18;34.73;94638.56;10496479;28;2845;-51
2023/11/29 05:44:57;;;;;;;;;;;;;;;18.23;34.60;94630.63;10496983;28;4589;-51
2023/11/29 05:49:59;;;;;;;;;;;;;;;18.26;34.58;94625.59;10496964;28;2876;-52
2023/11/29 05:55:00;;;;;;;;;;;;;;;18.32;34.43;94634.19;10501567;28;2999;-49
2023/11/29 06:00:08;;;;;;;;;;;;;;;18.32;34.57;94642.06;10500617;28;2831;-54
2023/11/29 06:05:11;;;;;;;;;;;;;;;18.36;34.46;94637.81;10497673;28;3118;-53
2023/11/29 06:10:11;;;;;;;;;;;;;;;18.39;34.25;94645.09;10499355;28;2873;-54
2023/11/29 06:15:12;;;;;;;;;;;;;;;18.41;34.24;94643.75;10495251;28;2912;-51
2023/11/29 06:20:13;;;;;;;;;;;;;;;18.46;34.26;94646.31;10499581;28;2967;-52
2023/11/29 06:25:14;;;;;;;;;;;;;;;18.48;34.37;94638.94;10498260;28;2830;-53
2023/11/29 06:30:16;;;;;;;;;;;;;;;18.48;34.27;94641.56;10501956;28;2857;-51
2023/11/29 06:35:17;;;;;;;;;;;;;;;18.52;34.12;94645.19;10502604;28;2872;-51
2023/11/29 06:40:18;;;;;;;;;;;;;;;18.53;34.41;94649.34;10496934;28;2855;-51
2023/11/29 06:45:19;;;;;;;;;;;;;;;18.55;34.40;94647.22;10497920;28;4605;-51
2023/11/29 06:50:19;;;;;;;;;;;;;;;18.57;34.18;94645.09;10497390;28;2877;-52
2023/11/29 06:55:19;;;;;;;;;;;;;;;18.59;34.52;94652.66;10490975;28;2880;-47
2023/11/29 07:00:21;;;;;;;;;;;;;;;18.58;34.33;94656.38;10496365;28;2916;-52
2023/11/29 07:05:21;;;;;;;;;;;;;;;18.62;34.26;94654.72;10501227;28;2902;-50
2023/11/29 07:10:21;;;;;;;;;;;;;;;18.63;34.07;94662.31;10494319;28;2860;-53
2023/11/29 07:15:22;;;;;;;;;;;;;;;18.70;34.61;94664.56;10497094;28;2872;-50
2023/11/29 07:20:22;;;;;;;;;;;;;;;18.75;34.63;94671.59;10494605;28;2821;-49
2023/11/29 07:25:22;;;;;;;;;;;;;;;18.77;34.74;94674.72;10496219;28;2769;-50
2023/11/29 07:30:22;;;;;;;;;;;;;;;18.79;34.92;94673.34;10492715;28;2800;-49
2023/11/29 07:35:23;;;;;;;;;;;;;;;18.81;34.56;94673.84;10492031;28;2915;-50
2023/11/29 07:40:26;;;;;;;;;;;;;;;18.84;34.57;94677.72;10493925;28;2898;-50
2023/11/29 07:45:26;;;;;;;;;;;;;;;18.85;34.92;94671.41;10493448;28;4739;-51
2023/11/29 07:50:26;;;;;;;;;;;;;;;18.86;34.67;94675.59;10494354;28;2875;-51
2023/11/29 07:55:27;;;;;;;;;;;;;;;18.87;34.84;94680.56;10503859;28;2814;-53
2023/11/29 08:00:27;;;;;;;;;;;;;;;18.89;34.44;94683.69;10500644;28;2973;-50
2023/11/29 08:05:28;;;;;;;;;;;;;;;18.91;34.44;94689.44;10491286;28;2867;-52
2023/11/29 08:10:29;;;;;;;;;;;;;;;18.91;35.02;94697.31;10498077;28;2804;-50
2023/11/29 08:15:29;;;;;;;;;;;;;;;18.88;35.11;94690.00;10496516;28;2786;-54
2023/11/29 08:20:29;;;;;;;;;;;;;;;18.89;34.51;94694.19;10498337;28;3141;-50
2023/11/29 08:25:30;;;;;;;;;;;;;;;18.85;34.07;94687.97;10495382;28;2804;-47
2023/11/29 08:30:30;;;;;;;;;;;;;;;18.85;34.60;94687.16;10504614;28;2872;-49
2023/11/29 08:35:30;;;;;;;;;;;;;;;18.87;34.55;94692.91;10492229;28;2890;-48
2023/11/29 08:40:31;;;;;;;;;;;;;;;18.84;34.55;94689.00;10491013;28;3137;-50
2023/11/29 08:45:31;;;;;;;;;;;;;;;18.84;34.68;94691.63;10490103;28;4534;-52
2023/11/29 08:50:31;;;;;;;;;;;;;;;18.84;34.75;94699.50;10492282;28;2863;-49
2023/11/29 08:55:31;;;;;;;;;;;;;;;18.84;34.24;94694.25;10513880;28;2746;-48
2023/11/29 09:00:32;;;;;;;;;;;;;;;18.87;33.89;94698.16;10491059;28;3017;-54
2023/11/29 09:05:32;;;;;;;;;;;;;;;18.85;34.09;94706.34;10491966;28;2844;-50
2023/11/29 09:10:32;;;;;;;;;;;;;;;18.86;33.75;94699.22;10488982;28;3349;-49
2023/11/29 09:15:33;;;;;;;;;;;;;;;18.88;33.75;94700.50;10491162;28;2838;-49
2023/11/29 09:20:33;;;;;;;;;;;;;;;18.85;34.53;94701.09;10496818;28;2916;-52
2023/11/29 09:25:33;;;;;;;;;;;;;;;18.91;33.33;94704.41;10491611;28;3117;-51
2023/11/29 09:30:34;;;;;;;;;;;;;;;18.92;33.77;94701.47;10493723;28;2850;-53
2023/11/29 09:35:34;;;;;;;;;;;;;;;18.89;34.10;94699.44;10507265;28;2880;-52
2023/11/29 09:40:34;;;;;;;;;;;;;;;18.92;33.27;94687.59;10490374;28;3110;-51
2023/11/29 09:45:35;;;;;;;;;;;;;;;18.91;33.59;94681.56;10493118;28;3367;-51
2023/11/29 09:50:35;;;;;;;;;;;;;;;18.92;33.25;94680.47;10476877;28;2876;-53
2023/11/29 09:55:36;;;;;;;;;;;;;;;18.91;33.07;94671.06;10489087;28;3319;-53
2023/11/29 10:00:36;;;;;;;;;;;;;;;18.91;33.16;94676.31;10486798;28;2887;-51
2023/11/29 10:05:36;;;;;;;;;;;;;;;18.93;33.07;94674.16;10487482;28;2852;-48
2023/11/29 10:10:37;;;;;;;;;;;;;;;18.92;33.63;94667.34;10486512;28;3113;-54
2023/11/29 10:15:37;;;;;;;;;;;;;;;18.93;33.26;94647.13;10487508;28;2829;-52
2023/11/29 10:20:37;;;;;;;;;;;;;;;18.92;33.06;94635.84;10481947;28;2837;-52
2023/11/29 10:25:38;;;;;;;;;;;;;;;18.95;33.12;94631.84;10491189;28;2801;-52
2023/11/29 10:30:38;;;;;;;;;;;;;;;18.95;33.10;94634.47;10496153;28;2848;-53
2023/11/29 10:35:39;;;;;;;;;;;;;;;18.96;32.92;94625.56;10492180;28;2943;-54
2023/11/29 10:40:39;;;;;;;;;;;;;;;18.96;32.89;94621.06;10487595;28;2829;-52
2023/11/29 10:45:40;;;;;;;;;;;;;;;19.00;33.25;94602.88;10485556;28;4605;-47
2023/11/29 10:50:40;;;;;;;;;;;;;;;19.02;33.80;94600.75;10487974;28;2922;-51
2023/11/29 10:55:41;;;;;;;;;;;;;;;19.06;33.52;94599.09;10490203;28;2787;-48
2023/11/29 11:00:43;;;;;;;;;;;;;;;19.10;33.97;94600.06;10486067;28;2978;-50
2023/11/29 11:05:43;;;;;;;;;;;;;;;19.14;34.68;94590.53;10492772;28;3078;-52
2023/11/29 11:10:44;;;;;;;;;;;;;;;19.22;35.11;94595.09;10486468;28;2853;-50
2023/11/29 11:15:44;;;;;;;;;;;;;;;19.24;35.07;94606.88;10486203;28;3134;-54
2023/11/29 11:20:51;;;;;;;;;;;;;;;19.25;35.57;94602.38;10479752;28;2881;-52
2023/11/29 11:25:53;;;;;;;;;;;;;;;19.26;35.31;94602.13;10482122;28;2920;-53
2023/11/29 11:30:54;;;;;;;;;;;;;;;19.27;35.25;94590.53;10485140;28;2801;-53
2023/11/29 11:35:57;;;;;;;;;;;;;;;19.28;35.37;94586.84;10487431;28;2809;-54
2023/11/29 11:40:58;;;;;;;;;;;;;;;19.27;35.36;94584.50;10486639;28;2933;-49
2023/11/29 11:45:58;;;;;;;;;;;;;;;19.30;35.11;94573.41;10478898;28;2829;-53
2023/11/29 11:50:59;;;;;;;;;;;;;;;19.31;35.17;94570.47;10485845;28;2859;-54
2023/11/29 11:55:59;;;;;;;;;;;;;;;19.33;35.18;94565.75;10496572;28;2901;-53
2023/11/29 12:01:00;;;;;;;;;;;;;;;19.35;35.08;94555.72;10496855;28;2896;-53
2023/11/29 12:06:04;;;;;;;;;;;;;;;19.38;35.17;94554.34;10493221;28;2848;-54
2023/11/29 12:11:06;;;;;;;;;;;;;;;19.39;34.94;94540.16;10495272;28;3316;-51
2023/11/29 12:16:13;;;;;;;;;;;;;;;19.41;34.86;94538.75;10498974;28;2865;-52
2023/11/29 12:21:14;;;;;;;;;;;;;;;19.43;34.77;94535.88;10496540;28;2899;-53
2023/11/29 12:26:16;;;;;;;;;;;;;;;19.45;34.67;94539.72;10497676;28;2935;-54
2023/11/29 12:31:17;;;;;;;;;;;;;;;19.47;34.78;94539.47;10496842;27;2786;-50
2023/11/29 12:36:17;;;;;;;;;;;;;;;19.48;34.69;94531.28;10489469;28;2820;-54
2023/11/29 12:41:17;;;;;;;;;;;;;;;19.49;34.72;94517.03;10492253;28;2857;-50
2023/11/29 12:46:18;;;;;;;;;;;;;;;19.52;34.51;94517.53;10489508;28;2910;-50
2023/11/29 12:51:18;;;;;;;;;;;;;;;19.53;34.36;94530.38;10492560;28;2938;-50
2023/11/29 12:56:18;;;;;;;;;;;;;;;19.57;34.52;94530.56;10487237;28;2865;-51
2023/11/29 13:01:18;;;;;;;;;;;;;;;19.59;34.40;94525.78;10485510;28;2849;-51
2023/11/29 13:06:19;;;;;;;;;;;;;;;19.62;34.24;94527.84;10489607;28;3252;-51
2023/11/29 13:11:19;;;;;;;;;;;;;;;19.64;34.70;94520.44;10509389;28;2887;-54
2023/11/29 13:16:20;;;;;;;;;;;;;;;19.66;34.50;94519.03;10486029;28;2884;-50
2023/11/29 13:21:20;;;;;;;;;;;;;;;19.71;34.63;94515.53;10491084;28;2796;-47
2023/11/29 13:26:21;;;;;;;;;;;;;;;19.75;34.48;94511.22;10492698;28;2925;-52
2023/11/29 13:31:21;;;;;;;;;;;;;;;19.76;34.60;94507.53;10497923;28;2955;-50
2023/11/29 13:36:21;;;;;;;;;;;;;;;19.79;34.17;94512.19;10478465;28;2830;-51
2023/11/29 13:41:26;;;;;;;;;;;;;;;19.81;34.16;94516.09;10495004;28;2791;-52
2023/11/29 13:46:27;;;;;;;;;;;;;;;19.86;33.83;94512.56;10486779;28;4630;-52
2023/11/29 13:51:28;;;;;;;;;;;;;;;19.87;33.84;94509.63;10496974;28;2914;-51
2023/11/29 13:56:28;;;;;;;;;;;;;;;19.88;33.93;94518.31;10493731;28;2864;-52
2023/11/29 14:01:28;;;;;;;;;;;;;;;19.86;34.26;94513.34;10497527;28;2926;-51
2023/11/29 14:06:28;;;;;;;;;;;;;;;19.87;34.06;94524.63;10500653;28;2744;-50
2023/11/29 14:11:29;;;;;;;;;;;;;;;19.85;34.41;94526.78;10492633;28;3402;-51
2023/11/29 14:16:29;;;;;;;;;;;;;;;19.83;34.20;94524.44;10488863;28;2856;-49
2023/11/29 14:21:29;;;;;;;;;;;;;;;19.82;34.45;94522.13;10497591;28;3140;-53
2023/11/29 14:26:30;;;;;;;;;;;;;;;19.81;34.28;94515.31;10496208;28;2865;-54
2023/11/29 14:31:30;;;;;;;;;;;;;;;19.78;34.68;94516.69;10493376;28;2926;-53
2023/11/29 14:36:30;;;;;;;;;;;;;;;19.79;34.32;94522.72;10498770;28;2846;-52
2023/11/29 14:41:31;;;;;;;;;;;;;;;19.77;34.44;94523.00;10492499;28;2846;-53
2023/11/29 14:46:31;;;;;;;;;;;;;;;19.78;34.66;94518.53;10496351;28;4665;-53
2023/11/29 14:51:31;;;;;;;;;;;;;;;19.77;34.60;94522.22;10493396;28;2849;-53
2023/11/29 14:56:31;;;;;;;;;;;;;;;19.77;34.53;94520.38;10491563;28;2827;-51
2023/11/29 15:01:32;;;;;;;;;;;;;;;19.77;34.64;94522.22;10490051;28;2837;-50
2023/11/29 15:06:32;;;;;;;;;;;;;;;19.76;34.39;94518.06;10494046;28;2844;-51
2023/11/29 15:11:32;;;;;;;;;;;;;;;19.76;34.27;94513.59;10492658;28;2802;-51
2023/11/29 15:16:33;;;;;;;;;;;;;;;19.75;34.40;94519.13;10494036;28;2825;-53
2023/11/29 15:21:34;;;;;;;;;;;;;;;19.75;34.20;94512.00;10497718;28;2789;-52
2023/11/29 15:26:37;;;;;;;;;;;;;;;19.75;34.43;94511.22;10500283;28;2852;-50
2023/11/29 15:31:37;;;;;;;;;;;;;;;19.73;34.18;94506.28;10502575;28;3097;-54
2023/11/29 15:36:37;;;;;;;;;;;;;;;19.75;34.46;94505.97;10504055;28;2902;-52
2023/11/29 15:41:39;;;;;;;;;;;;;;;19.76;34.22;94499.66;10499023;28;3177;-51
2023/11/29 15:46:39;;;;;;;;;;;;;;;19.75;34.21;94500.72;10499143;28;4691;-51
2023/11/29 15:51:39;;;;;;;;;;;;;;;19.78;33.92;94500.13;10500844;28;2809;-47
2023/11/29 15:56:40;;;;;;;;;;;;;;;19.83;33.84;94503.41;10507029;28;3075;-52
2023/11/29 16:01:40;;;;;;;;;;;;;;;19.88;33.83;94502.53;10497275;28;2864;-51
2023/11/29 16:06:40;;;;;;;;;;;;;;;19.91;33.80;94499.28;10497052;28;2910;-49
2023/11/29 16:11:43;;;;;;;;;;;;;;;19.93;33.24;94492.66;10498334;28;2880;-53
2023/11/29 16:16:43;;;;;;;;;;;;;;;20.00;32.53;94493.03;10502547;28;2790;-49
2023/11/29 16:21:43;;;;;;;;;;;;;;;20.04;32.54;94493.19;10485495;28;3114;-52
2023/11/29 16:26:44;;;;;;;;;;;;;;;20.04;32.29;94483.47;10488194;28;3089;-53
2023/11/29 16:31:45;;;;;;;;;;;;;;;20.02;32.24;94484.81;10483676;28;2891;-53
2023/11/29 16:36:45;;;;;;;;;;;;;;;19.98;32.60;94479.41;10478197;28;2913;-53
2023/11/29 16:41:45;;;;;;;;;;;;;;;19.96;32.60;94486.81;10481086;28;2791;-54
2023/11/29 16:46:45;;;;;;;;;;;;;;;19.91;32.95;94481.66;10482061;28;4564;-51
2023/11/29 16:51:46;;;;;;;;;;;;;;;19.89;32.88;94486.44;10489644;28;2946;-53
2023/11/29 16:56:48;;;;;;;;;;;;;;;19.89;32.54;94483.03;10485837;28;2881;-52
2023/11/29 17:01:49;;;;;;;;;;;;;;;19.84;32.87;94489.22;10486423;28;2877;-53
2023/11/29 17:06:49;;;;;;;;;;;;;;;19.80;33.36;94488.25;10483569;28;2844;-52
2023/11/29 17:11:49;;;;;;;;;;;;;;;19.78;33.21;94492.25;10484618;28;2816;-54
2023/11/29 17:16:52;;;;;;;;;;;;;;;19.78;33.04;94487.00;10485591;28;3201;-51
2023/11/29 17:21:52;;;;;;;;;;;;;;;19.77;33.30;94486.19;10482479;28;3115;-53
2023/11/29 17:26:52;;;;;;;;;;;;;;;19.76;33.40;94487.28;10488378;28;3202;-54
2023/11/29 17:31:53;;;;;;;;;;;;;;;19.77;33.27;94490.69;10481597;28;3193;-52
2023/11/29 17:36:54;;;;;;;;;;;;;;;19.74;33.20;94501.81;10489568;28;2843;-52
2023/11/29 17:41:54;;;;;;;;;;;;;;;19.72;32.75;94493.44;10486608;28;2855;-51
2023/11/29 17:46:54;;;;;;;;;;;;;;;19.75;33.37;94503.34;10481438;28;4510;-53
2023/11/29 17:51:55;;;;;;;;;;;;;;;19.81;33.87;94504.78;10487064;28;2817;-52
2023/11/29 17:56:55;;;;;;;;;;;;;;;19.87;33.76;94508.84;10489667;28;2854;-54
2023/11/29 18:01:55;;;;;;;;;;;;;;;19.92;32.33;94504.28;10485038;28;2954;-50
2023/11/29 18:06:56;;;;;;;;;;;;;;;19.96;32.17;94504.44;10486791;28;3139;-49
2023/11/29 18:11:56;;;;;;;;;;;;;;;19.97;32.27;94498.88;10493240;28;2803;-53
2023/11/29 18:16:56;;;;;;;;;;;;;;;20.06;32.74;94504.19;10492326;28;2920;-51
2023/11/29 18:21:56;;;;;;;;;;;;;;;20.07;32.13;94497.88;10485438;28;2989;-50
2023/11/29 18:26:57;;;;;;;;;;;;;;;20.11;32.36;94496.19;10494653;28;2963;-46
2023/11/29 18:31:58;;;;;;;;;;;;;;;20.13;32.31;94501.94;10496212;28;2800;-46
2023/11/29 18:37:06;;;;;;;;;;;;;;;20.13;32.24;94494.78;10494561;28;2844;-52
2023/11/29 18:42:07;;;;;;;;;;;;;;;20.15;32.00;94510.31;10485505;28;2913;-52
2023/11/29 18:47:07;;;;;;;;;;;;;;;20.18;32.41;94507.06;10501115;28;2916;-49
2023/11/29 18:52:08;;;;;;;;;;;;;;;20.18;32.24;94507.06;10487538;28;2809;-46
2023/11/29 18:57:09;;;;;;;;;;;;;;;20.19;32.45;94503.34;10512232;28;2828;-48
2023/11/29 19:02:09;;;;;;;;;;;;;;;20.23;31.79;94502.50;10524475;28;2245;-48
2023/11/29 19:07:09;;;;;;;;;;;;;;;20.27;31.94;94503.44;10523974;28;1440;-49
2023/11/29 19:12:10;;;;;;;;;;;;;;;20.28;31.98;94501.56;10521650;28;2173;-49
2023/11/29 19:17:10;;;;;;;;;;;;;;;20.26;31.76;94495.81;10518404;28;1536;-47
2023/11/29 19:22:11;;;;;;;;;;;;;;;20.24;32.71;94505.88;10527923;28;1906;-49
2023/11/29 19:27:12;;;;;;;;;;;;;;;20.32;31.73;94504.41;10518497;28;1531;-49
2023/11/29 19:32:13;;;;;;;;;;;;;;;20.30;31.80;94507.31;10516570;28;1460;-51
2023/11/29 19:37:13;;;;;;;;;;;;;;;20.31;31.44;94508.88;10517833;28;1545;-46
2023/11/29 19:42:14;;;;;;;;;;;;;;;20.32;31.72;94517.56;10514079;28;1963;-50
2023/11/29 19:47:15;;;;;;;;;;;;;;;20.33;31.63;94509.34;10512902;28;4730;-49
2023/11/29 19:52:17;;;;;;;;;;;;;;;20.29;32.00;94505.78;10517467;28;2218;-51
2023/11/29 19:57:20;;;;;;;;;;;;;;;20.31;31.38;94508.09;10513681;28;2343;-50
2023/11/29 20:02:20;;;;;;;;;;;;;;;20.26;31.80;94501.88;10519341;28;1973;-49
2023/11/29 20:07:20;;;;;;;;;;;;;;;20.25;31.73;94497.72;10514630;28;1804;-46
2023/11/29 20:12:20;;;;;;;;;;;;;;;20.26;31.30;94499.25;10524545;28;2922;-47
2023/11/29 20:17:21;;;;;;;;;;;;;;;20.30;31.59;94499.41;10523430;28;2060;-50
2023/11/29 20:22:21;;;;;;;;;;;;;;;20.33;31.61;94483.03;10526507;28;1913;-53
2023/11/29 20:27:21;;;;;;;;;;;;;;;20.30;31.43;94486.25;10529738;28;1617;-47
2023/11/29 20:32:22;;;;;;;;;;;;;;;20.29;31.62;94471.56;10528495;28;1398;-51
2023/11/29 20:37:22;;;;;;;;;;;;;;;20.33;31.62;94461.19;10523162;28;1486;-50
2023/11/29 20:42:22;;;;;;;;;;;;;;;20.33;31.43;94464.63;10523348;28;2445;-47
2023/11/29 20:47:23;;;;;;;;;;;;;;;20.35;31.03;94456.41;10520836;28;4731;-49
2023/11/29 20:52:23;;;;;;;;;;;;;;;20.33;31.19;94459.34;10524034;28;2032;-49
2023/11/29 20:57:23;;;;;;;;;;;;;;;20.27;31.36;94450.03;10523483;28;1604;-48
2023/11/29 21:02:24;;;;;;;;;;;;;;;20.25;31.28;94444.28;10522133;28;1910;-51
2023/11/29 21:07:24;;;;;;;;;;;;;;;20.21;32.02;94449.41;10524950;28;1457;-51
2023/11/29 21:12:24;;;;;;;;;;;;;;;20.19;31.68;94443.66;10521890;28;1717;-50
2023/11/29 21:17:24;;;;;;;;;;;;;;;20.18;32.33;94446.53;10526540;28;1496;-50
2023/11/29 21:22:25;;;;;;;;;;;;;;;20.11;32.47;94436.44;10526823;28;2269;-52
2023/11/29 21:27:25;;;;;;;;;;;;;;;20.06;32.62;94427.91;10520003;28;2306;-51
2023/11/29 21:32:25;;;;;;;;;;;;;;;20.00;33.08;94434.38;10531753;28;1807;-51
2023/11/29 21:37:26;;;;;;;;;;;;;;;19.92;33.04;94435.09;10528975;28;1629;-51
2023/11/29 21:42:27;;;;;;;;;;;;;;;19.84;33.13;94430.56;10521489;28;1913;-49
2023/11/29 21:47:27;;;;;;;;;;;;;;;19.79;34.22;94428.03;10509488;28;4677;-49
2023/11/29 21:52:28;;;;;;;;;;;;;;;19.74;33.57;94426.31;10519847;28;1606;-51
2023/11/29 21:57:28;;;;;;;;;;;;;;;19.68;33.65;94416.25;10517007;28;1492;-50
2023/11/29 22:02:28;;;;;;;;;;;;;;;19.63;34.09;94403.19;10523944;28;1969;-50
2023/11/29 22:07:29;;;;;;;;;;;;;;;19.61;34.17;94402.72;10520562;28;2353;-46
2023/11/29 22:12:29;;;;;;;;;;;;;;;19.53;34.66;94393.72;10527674;28;1643;-49
2023/11/29 22:17:29;;;;;;;;;;;;;;;19.47;34.86;94385.16;10521511;28;1495;-47
2023/11/29 22:22:29;;;;;;;;;;;;;;;19.43;34.59;94378.94;10523824;28;1910;-50
2023/11/29 22:27:30;;;;;;;;;;;;;;;19.40;34.71;94379.56;10525173;28;1462;-47
2023/11/29 22:32:30;;;;;;;;;;;;;;;19.35;34.70;94394.66;10525738;28;1479;-48
2023/11/29 22:37:30;;;;;;;;;;;;;;;19.31;34.46;94380.53;10521597;28;1698;-50
2023/11/29 22:42:31;;;;;;;;;;;;;;;19.26;34.57;94380.66;10503624;28;1917;-48
2023/11/29 22:47:31;;;;;;;;;;;;;;;19.23;34.53;94374.13;10520573;28;1481;-50
2023/11/29 22:52:31;;;;;;;;;;;;;;;19.18;34.86;94365.59;10501784;28;3103;-49
2023/11/29 22:57:32;;;;;;;;;;;;;;;19.17;34.34;94364.81;10492018;28;2950;-48
2023/11/29 23:02:32;;;;;;;;;;;;;;;19.11;34.56;94350.25;10491748;28;2835;-47
2023/11/29 23:07:32;;;;;;;;;;;;;;;19.09;34.63;94362.13;10519497;27;2816;-48
2023/11/29 23:12:32;;;;;;;;;;;;;;;19.06;34.29;94366.09;10489484;28;2850;-47
2023/11/29 23:17:33;;;;;;;;;;;;;;;19.02;34.43;94369.66;10490700;28;2985;-49
2023/11/29 23:22:33;;;;;;;;;;;;;;;18.97;34.47;94365.28;10495865;28;2793;-50
2023/11/29 23:27:33;;;;;;;;;;;;;;;18.96;34.34;94355.06;10498598;28;2825;-49
2023/11/29 23:32:33;;;;;;;;;;;;;;;18.92;34.25;94356.75;10495351;28;2840;-48
2023/11/29 23:37:34;;;;;;;;;;;;;;;18.89;34.31;94350.22;10490985;28;2832;-45
2023/11/29 23:42:34;;;;;;;;;;;;;;;18.88;34.23;94346.03;10492507;28;2791;-50
2023/11/29 23:47:34;;;;;;;;;;;;;;;18.85;34.04;94346.66;10500135;28;4680;-50
2023/11/29 23:52:35;;;;;;;;;;;;;;;18.81;34.09;94337.03;10498064;28;3060;-47
2023/11/29 23:57:35;;;;;;;;;;;;;;;18.78;34.02;94351.50;10502062;28;2947;-47
